Time;durP1;ratioP1;P1;durP2;ratioP2;P2;SDS_P1;SDS_P2;PMS_P1;PMS_P2;Temp;Humidity;BMP_temperature;BMP_pressure;BME280_temperature;BME280_humidity;BME280_pressure;Samples;Min_cycle;Max_cycle;Signal;HPM_P1;HPM_P2
2022/07/08 00:01:01;;;;;;;20.38;3.13;;;14.60;99.90;;;;;;4994732;28;20022;-59
2022/07/08 00:03:27;;;;;;;10.95;1.70;;;14.60;99.90;;;;;;4994962;28;20027;-59
2022/07/08 00:05:53;;;;;;;9.30;1.65;;;14.60;99.90;;;;;;4995285;28;20062;-59
2022/07/08 00:08:19;;;;;;;7.53;1.65;;;14.70;99.90;;;;;;5008944;23;20134;-60
2022/07/08 00:10:45;;;;;;;8.05;1.70;;;14.70;99.90;;;;;;4975754;28;20496;-59
2022/07/08 00:13:11;;;;;;;11.63;2.10;;;14.70;99.90;;;;;;4975649;28;20029;-57
2022/07/08 00:15:36;;;;;;;10.38;1.77;;;14.70;99.90;;;;;;4973625;28;20023;-59
2022/07/08 00:18:02;;;;;;;8.52;1.75;;;14.70;99.90;;;;;;4980673;28;20503;-57
2022/07/08 00:20:28;;;;;;;9.48;1.65;;;14.70;99.90;;;;;;4995017;28;20041;-59
2022/07/08 00:22:54;;;;;;;12.13;2.58;;;14.60;99.90;;;;;;4995052;28;20031;-59
2022/07/08 00:25:20;;;;;;;12.52;1.90;;;14.50;99.90;;;;;;4994731;28;20028;-59
2022/07/08 00:27:45;;;;;;;8.20;1.92;;;14.40;99.90;;;;;;4994583;28;20022;-60
2022/07/08 00:30:12;;;;;;;12.25;2.17;;;14.30;99.90;;;;;;4993056;28;20031;-58
2022/07/08 00:32:38;;;;;;;9.05;1.73;;;14.10;99.90;;;;;;4994743;28;20035;-58
2022/07/08 00:35:05;;;;;;;12.98;2.40;;;14.00;99.90;;;;;;4994450;28;20027;-59
2022/07/08 00:37:31;;;;;;;6.93;2.05;;;13.90;99.90;;;;;;4994408;28;20018;-59
2022/07/08 00:39:57;;;;;;;12.95;1.80;;;13.90;99.90;;;;;;4994638;28;20026;-57
2022/07/08 00:42:22;;;;;;;6.95;1.58;;;13.80;99.90;;;;;;4994447;28;20022;-57
2022/07/08 00:44:48;;;;;;;5.30;1.75;;;13.80;99.90;;;;;;4992488;28;20391;-57
2022/07/08 00:47:13;;;;;;;16.48;2.38;;;13.70;99.90;;;;;;4989545;28;20089;-57
2022/07/08 00:49:40;;;;;;;7.75;1.50;;;13.70;99.90;;;;;;4994810;28;20489;-56
2022/07/08 00:52:06;;;;;;;7.55;1.60;;;13.60;99.90;;;;;;4994390;28;20037;-58
2022/07/08 00:54:32;;;;;;;6.28;1.50;;;13.60;99.90;;;;;;4994079;28;20081;-55
2022/07/08 00:56:58;;;;;;;6.15;1.45;;;13.50;99.90;;;;;;4993158;28;20038;-58
2022/07/08 00:59:24;;;;;;;9.65;3.55;;;13.50;99.90;;;;;;4994389;28;20027;-59
2022/07/08 01:01:50;;;;;;;5.43;1.52;;;13.40;99.90;;;;;;4989726;28;20022;-56
2022/07/08 01:04:16;;;;;;;7.78;1.38;;;13.40;99.90;;;;;;4994336;28;20109;-60
2022/07/08 01:06:42;;;;;;;6.45;1.52;;;13.40;99.90;;;;;;4993786;28;20030;-59
2022/07/08 01:09:09;;;;;;;8.55;1.42;;;13.40;99.90;;;;;;4993931;28;20068;-59
2022/07/08 01:11:35;;;;;;;11.45;3.17;;;13.50;99.90;;;;;;4992966;28;20480;-51
2022/07/08 01:14:00;;;;;;;9.82;1.52;;;13.50;99.90;;;;;;4993695;28;20081;-52
2022/07/08 01:16:26;;;;;;;10.32;1.20;;;13.50;99.90;;;;;;4993755;28;20054;-50
2022/07/08 01:18:52;;;;;;;11.15;2.67;;;13.50;99.90;;;;;;4993886;28;20022;-54
2022/07/08 01:21:18;;;;;;;10.13;1.92;;;13.60;99.90;;;;;;4993940;28;20096;-57
2022/07/08 01:23:44;;;;;;;5.80;1.70;;;13.60;99.90;;;;;;4992401;28;20023;-55
2022/07/08 01:26:11;;;;;;;9.80;1.27;;;13.60;99.90;;;;;;4993225;28;20085;-56
2022/07/08 01:28:39;;;;;;;8.73;1.38;;;13.70;99.90;;;;;;4993993;28;20111;-58
2022/07/08 01:31:04;;;;;;;6.55;1.20;;;13.70;99.90;;;;;;4993265;28;20022;-56
2022/07/08 01:33:30;;;;;;;9.98;1.35;;;13.70;99.90;;;;;;4991969;28;20022;-58
2022/07/08 01:35:56;;;;;;;8.70;1.58;;;13.70;99.90;;;;;;4993347;28;20037;-57
2022/07/08 01:38:21;;;;;;;7.78;1.55;;;13.70;99.90;;;;;;4993288;28;20451;-58
2022/07/08 01:40:47;;;;;;;8.65;1.42;;;13.70;99.90;;;;;;4992285;28;20033;-58
2022/07/08 01:43:13;;;;;;;6.32;1.50;;;13.70;99.90;;;;;;4993053;28;20018;-58
2022/07/08 01:45:38;;;;;;;9.43;1.20;;;13.70;99.90;;;;;;4993067;28;20022;-57
2022/07/08 01:48:04;;;;;;;8.00;1.60;;;13.60;99.90;;;;;;4993207;28;20111;-57
2022/07/08 01:50:30;;;;;;;4.68;1.50;;;13.70;99.90;;;;;;4993291;28;20026;-59
2022/07/08 01:52:56;;;;;;;7.63;1.40;;;13.70;99.90;;;;;;4975436;28;20042;-57
2022/07/08 01:55:22;;;;;;;11.15;1.75;;;13.70;99.90;;;;;;4973418;28;20026;-58
2022/07/08 01:57:48;;;;;;;9.23;1.67;;;13.80;99.90;;;;;;4973572;28;20076;-57
2022/07/08 02:00:14;;;;;;;9.32;1.27;;;13.80;99.90;;;;;;4974000;28;20026;-57
2022/07/08 02:02:39;;;;;;;9.63;2.00;;;13.90;99.90;;;;;;4988948;28;20104;-58
2022/07/08 02:05:06;;;;;;;6.00;2.20;;;13.90;99.90;;;;;;4992744;28;20432;-57
2022/07/08 02:07:32;;;;;;;6.80;1.40;;;13.90;99.90;;;;;;4992353;28;20030;-58
2022/07/08 02:09:58;;;;;;;10.75;1.58;;;13.90;99.90;;;;;;4992888;28;20026;-57
2022/07/08 02:12:24;;;;;;;9.93;1.90;;;14.00;99.90;;;;;;4991280;28;20034;-57
2022/07/08 02:14:52;;;;;;;9.88;1.67;;;14.00;99.90;;;;;;4992960;28;20135;-57
2022/07/08 02:17:20;;;;;;;5.90;1.42;;;14.00;99.90;;;;;;4992714;28;20054;-57
2022/07/08 02:19:46;;;;;;;6.80;1.67;;;13.90;99.90;;;;;;4992787;28;20033;-58
2022/07/08 02:22:12;;;;;;;7.32;2.05;;;13.90;99.90;;;;;;4981748;28;20109;-58
2022/07/08 02:24:38;;;;;;;13.45;2.22;;;13.90;99.90;;;;;;4973409;28;20031;-57
2022/07/08 02:27:05;;;;;;;11.07;2.00;;;13.90;99.90;;;;;;4973361;28;20507;-59
2022/07/08 02:29:31;;;;;;;10.40;1.65;;;13.90;99.90;;;;;;4973415;28;20070;-58
2022/07/08 02:31:57;;;;;;;14.40;1.60;;;14.00;99.90;;;;;;4980764;28;20037;-58
2022/07/08 02:34:22;;;;;;;12.52;1.90;;;14.00;99.90;;;;;;4992442;28;20026;-55
2022/07/08 02:36:48;;;;;;;12.93;2.10;;;14.00;99.90;;;;;;4992080;28;20374;-59
2022/07/08 02:39:14;;;;;;;8.18;2.03;;;14.00;99.90;;;;;;4992358;28;20491;-57
2022/07/08 02:41:40;;;;;;;8.07;1.80;;;13.90;99.90;;;;;;4986379;28;20031;-58
2022/07/08 02:44:06;;;;;;;9.60;1.58;;;13.80;99.90;;;;;;4973029;28;20457;-58
2022/07/08 02:46:33;;;;;;;12.63;1.70;;;13.90;99.90;;;;;;4972865;28;20102;-58
2022/07/08 02:48:59;;;;;;;10.27;1.52;;;13.80;99.90;;;;;;4972794;28;20089;-59
2022/07/08 02:51:25;;;;;;;10.63;2.03;;;13.80;99.90;;;;;;4974246;28;20030;-57
2022/07/08 02:53:51;;;;;;;9.15;1.98;;;13.90;99.90;;;;;;4972851;28;20038;-56
2022/07/08 02:56:16;;;;;;;10.18;1.65;;;13.80;99.90;;;;;;4972743;28;20366;-58
2022/07/08 02:58:42;;;;;;;12.77;2.53;;;13.80;99.90;;;;;;4972775;28;20023;-58
2022/07/08 03:01:07;;;;;;;12.50;2.10;;;13.90;99.90;;;;;;4973888;28;20053;-59
2022/07/08 03:03:33;;;;;;;10.43;2.10;;;13.90;99.90;;;;;;4990449;28;20050;-57
2022/07/08 03:05:59;;;;;;;15.00;2.08;;;13.90;99.90;;;;;;4992200;28;20026;-56
2022/07/08 03:08:24;;;;;;;10.10;1.73;;;13.90;99.90;;;;;;4991934;28;20096;-59
2022/07/08 03:10:50;;;;;;;7.57;1.80;;;13.90;99.90;;;;;;4992410;28;20407;-58
2022/07/08 03:13:16;;;;;;;8.55;2.08;;;13.90;99.90;;;;;;4990108;28;20039;-58
2022/07/08 03:15:42;;;;;;;7.35;1.67;;;13.90;99.90;;;;;;4991940;28;20037;-59
2022/07/08 03:18:08;;;;;;;10.35;2.10;;;13.90;99.90;;;;;;4991836;28;20453;-57
2022/07/08 03:20:34;;;;;;;8.05;2.22;;;13.90;99.90;;;;;;4995370;28;20065;-59
2022/07/08 03:22:59;;;;;;;7.38;1.80;;;13.90;99.90;;;;;;4994530;28;20054;-57
2022/07/08 03:25:25;;;;;;;9.65;2.42;;;13.90;99.90;;;;;;4995996;28;20061;-55
2022/07/08 03:27:51;;;;;;;12.25;2.13;;;13.90;99.90;;;;;;4995810;28;20053;-58
2022/07/08 03:30:17;;;;;;;10.00;2.05;;;13.80;99.90;;;;;;4995371;28;20036;-58
2022/07/08 03:32:42;;;;;;;10.70;2.67;;;13.80;99.90;;;;;;4994418;28;20029;-58
2022/07/08 03:35:08;;;;;;;8.85;2.38;;;13.70;99.90;;;;;;4995805;28;20484;-59
2022/07/08 03:37:34;;;;;;;10.40;2.47;;;13.70;99.90;;;;;;4995605;28;20026;-60
2022/07/08 03:41:19;;;;;;;10.18;2.53;;;13.60;99.90;;;;;;4995636;28;20027;-59
2022/07/08 03:42:45;;;;;;;10.90;2.60;;;13.60;99.90;;;;;;4993654;28;20117;-58
2022/07/08 03:45:11;;;;;;;10.38;2.30;;;13.50;99.90;;;;;;4995347;28;20094;-56
2022/07/08 03:47:37;;;;;;;9.48;1.77;;;13.50;99.90;;;;;;4995262;28;20038;-58
2022/07/08 03:50:03;;;;;;;11.70;2.25;;;13.50;99.90;;;;;;4995570;28;20023;-57
2022/07/08 03:52:29;;;;;;;8.10;2.42;;;13.50;99.90;;;;;;4993946;28;20487;-57
2022/07/08 03:54:54;;;;;;;8.70;2.38;;;13.50;99.90;;;;;;4995200;28;20106;-56
2022/07/08 03:57:20;;;;;;;8.40;2.58;;;13.60;99.90;;;;;;4995268;28;20455;-58
2022/07/08 03:59:46;;;;;;;14.63;3.00;;;13.60;99.90;;;;;;4995588;28;20342;-58
2022/07/08 04:02:11;;;;;;;8.40;2.95;;;13.70;99.90;;;;;;4993398;28;20022;-56
2022/07/08 04:04:37;;;;;;;8.50;2.10;;;13.70;99.90;;;;;;4975884;28;20077;-58
2022/07/08 04:07:03;;;;;;;7.75;2.65;;;13.70;99.90;;;;;;4975929;28;20481;-58
2022/07/08 04:09:28;;;;;;;11.25;3.30;;;13.80;99.90;;;;;;4975538;28;20053;-57
2022/07/08 04:11:54;;;;;;;11.43;3.28;;;13.80;99.90;;;;;;4975690;28;20441;-57
2022/07/08 04:14:19;;;;;;;7.93;3.88;;;13.90;99.90;;;;;;4976645;28;20031;-55
2022/07/08 04:16:45;;;;;;;8.23;3.22;;;13.90;99.90;;;;;;4975300;28;20031;-57
2022/07/08 04:19:11;;;;;;;11.90;2.90;;;14.00;99.90;;;;;;4975591;28;20070;-59
2022/07/08 04:21:36;;;;;;;14.00;2.78;;;13.90;99.90;;;;;;4975568;28;20023;-58
2022/07/08 04:24:02;;;;;;;10.52;2.78;;;14.00;99.90;;;;;;4976542;28;20400;-60
2022/07/08 04:26:33;;;;;;;9.57;2.58;;;14.10;99.90;;;;;;4974993;28;20026;-57
2022/07/08 04:28:59;;;;;;;10.77;3.20;;;14.10;99.90;;;;;;4975345;28;20481;-59
2022/07/08 04:31:29;;;;;;;14.50;3.78;;;14.10;99.90;;;;;;4975925;28;20062;-58
2022/07/08 04:33:54;;;;;;;11.00;2.78;;;14.00;99.90;;;;;;4994997;28;20030;-57
2022/07/08 04:36:24;;;;;;;6.20;2.47;;;14.10;99.90;;;;;;4994296;28;20457;-59
2022/07/08 04:38:49;;;;;;;9.02;2.60;;;14.10;99.90;;;;;;4994772;28;20026;-57
2022/07/08 04:41:16;;;;;;;8.82;2.50;;;14.30;99.90;;;;;;4994607;28;20565;-60
2022/07/08 04:43:45;;;;;;;8.10;2.20;;;14.40;99.90;;;;;;4993131;28;20058;-59
2022/07/08 04:46:11;;;;;;;9.15;2.50;;;14.60;99.90;;;;;;4994060;28;20030;-59
2022/07/08 04:48:37;;;;;;;5.38;1.92;;;14.70;99.90;;;;;;4994296;28;20396;-58
2022/07/08 04:51:03;;;;;;;5.68;2.20;;;14.70;99.90;;;;;;4994370;28;20026;-58
2022/07/08 04:53:29;;;;;;;7.25;2.00;;;14.80;99.90;;;;;;4992670;28;20563;-59
2022/07/08 04:55:54;;;;;;;9.45;2.58;;;14.80;99.90;;;;;;4994163;28;20106;-59
2022/07/08 04:58:20;;;;;;;9.77;2.22;;;14.90;99.90;;;;;;4994075;28;20401;-59
2022/07/08 05:00:45;;;;;;;10.50;2.40;;;15.00;99.90;;;;;;4994220;28;20113;-59
2022/07/08 05:03:11;;;;;;;8.10;2.03;;;15.00;99.90;;;;;;4982210;28;20034;-60
2022/07/08 05:05:37;;;;;;;5.97;1.90;;;15.20;99.90;;;;;;4974678;28;20023;-56
2022/07/08 05:08:03;;;;;;;7.57;2.13;;;15.50;99.90;;;;;;4974601;28;20031;-59
2022/07/08 05:10:29;;;;;;;5.90;2.30;;;15.50;99.90;;;;;;4974984;28;20477;-60
2022/07/08 05:12:56;;;;;;;10.85;2.15;;;15.50;99.90;;;;;;4986065;28;20031;-59
2022/07/08 05:15:23;;;;;;;6.85;2.40;;;15.50;99.90;;;;;;4993829;28;20315;-60
2022/07/08 05:17:49;;;;;;;9.18;2.65;;;15.80;99.90;;;;;;4993630;28;20142;-58
2022/07/08 05:20:15;;;;;;;10.70;2.90;;;16.00;99.90;;;;;;4993748;28;20026;-58
2022/07/08 05:22:40;;;;;;;4.90;2.20;;;16.20;99.60;;;;;;4992096;28;20027;-56
2022/07/08 05:25:08;;;;;;;6.82;2.13;;;16.40;99.90;;;;;;4993608;28;20027;-56
2022/07/08 05:27:34;;;;;;;5.57;1.70;;;17.60;99.20;;;;;;4993581;28;20031;-57
2022/07/08 05:30:00;;;;;;;5.63;1.90;;;19.40;95.80;;;;;;4993694;28;20023;-54
2022/07/08 05:32:26;;;;;;;7.65;1.52;;;20.50;91.50;;;;;;4986438;28;20555;-55
2022/07/08 05:34:51;;;;;;;5.93;1.55;;;20.90;87.60;;;;;;4974086;28;20038;-57
2022/07/08 05:37:17;;;;;;;4.10;1.35;;;21.00;87.50;;;;;;4974113;28;20484;-56
2022/07/08 05:39:43;;;;;;;6.15;1.58;;;20.00;88.00;;;;;;4973977;28;20053;-57
2022/07/08 05:42:10;;;;;;;6.90;1.73;;;19.90;90.10;;;;;;4974579;28;20072;-54
2022/07/08 05:44:36;;;;;;;5.30;1.80;;;19.40;90.30;;;;;;4973701;28;20034;-58
2022/07/08 05:47:07;;;;;;;6.18;1.88;;;19.00;91.10;;;;;;4973747;28;20113;-59
2022/07/08 05:49:34;;;;;;;7.95;2.30;;;18.60;92.30;;;;;;4974039;28;20126;-60
2022/07/08 05:52:00;;;;;;;6.47;1.83;;;18.00;93.10;;;;;;4974932;28;20038;-52
2022/07/08 05:54:26;;;;;;;7.07;2.00;;;17.60;93.70;;;;;;4974005;28;20041;-55
2022/07/08 05:56:51;;;;;;;6.68;1.95;;;17.60;94.10;;;;;;4973387;28;20030;-54
2022/07/08 05:59:17;;;;;;;11.15;3.13;;;17.30;94.90;;;;;;4973646;28;20516;-51
2022/07/08 06:01:42;;;;;;;8.98;2.90;;;17.20;94.50;;;;;;4973581;28;20019;-54
2022/07/08 06:04:08;;;;;;;10.82;2.85;;;17.00;95.10;;;;;;4991435;28;20113;-57
2022/07/08 06:06:34;;;;;;;4.50;2.42;;;17.00;95.10;;;;;;4992648;28;20030;-59
2022/07/08 06:08:59;;;;;;;9.68;2.45;;;16.80;95.90;;;;;;4994038;28;20074;-60
2022/07/08 06:11:25;;;;;;;15.30;4.65;;;16.80;95.80;;;;;;4992988;28;20102;-60
2022/07/08 06:13:51;;;;;;;10.88;3.50;;;16.70;96.40;;;;;;4977506;28;20385;-58
2022/07/08 06:16:16;;;;;;;13.15;4.07;;;16.70;95.60;;;;;;4973249;28;20761;-60
2022/07/08 06:18:42;;;;;;;8.52;4.03;;;16.80;95.40;;;;;;4973133;28;20548;-60
2022/07/08 06:21:08;;;;;;;8.63;4.00;;;16.80;95.10;;;;;;4973373;28;20362;-59
2022/07/08 06:23:35;;;;;;;7.72;3.88;;;16.80;95.30;;;;;;4974390;28;20033;-58
2022/07/08 06:26:01;;;;;;;7.50;3.38;;;16.80;95.30;;;;;;4974072;28;20034;-59
2022/07/08 06:28:27;;;;;;;10.45;3.42;;;16.90;95.30;;;;;;4974148;28;20109;-60
2022/07/08 06:30:52;;;;;;;9.52;3.72;;;17.20;95.10;;;;;;4972717;28;20035;-59
2022/07/08 06:33:18;;;;;;;11.70;3.85;;;17.50;95.80;;;;;;4973160;28;20058;-57
2022/07/08 06:35:43;;;;;;;11.23;3.38;;;18.50;94.20;;;;;;4974580;28;20109;-59
2022/07/08 06:38:10;;;;;;;11.60;3.15;;;19.10;92.00;;;;;;4972956;28;20027;-60
2022/07/08 06:40:35;;;;;;;9.15;2.53;;;19.00;90.20;;;;;;4973020;28;20033;-59
2022/07/08 06:43:01;;;;;;;7.65;2.60;;;18.80;90.50;;;;;;4973193;28;20341;-58
2022/07/08 06:45:30;;;;;;;4.57;1.77;;;18.90;90.50;;;;;;4974003;28;20031;-59
2022/07/08 06:47:56;;;;;;;6.38;2.40;;;18.60;90.90;;;;;;4972745;28;20513;-60
2022/07/08 06:50:21;;;;;;;11.15;2.17;;;18.50;91.90;;;;;;4972978;28;20041;-60
2022/07/08 06:52:47;;;;;;;10.30;2.28;;;18.00;91.50;;;;;;4972770;28;20048;-58
2022/07/08 06:55:13;;;;;;;6.78;3.28;;;18.10;92.60;;;;;;4972835;28;20039;-57
2022/07/08 06:57:38;;;;;;;11.18;3.20;;;18.90;91.10;;;;;;4972774;28;20121;-58
2022/07/08 07:00:05;;;;;;;5.72;1.73;;;19.90;91.50;;;;;;4973116;28;20030;-60
2022/07/08 07:02:31;;;;;;;5.65;1.50;;;22.30;84.20;;;;;;4974177;28;20039;-59
2022/07/08 07:04:57;;;;;;;6.90;1.63;;;22.80;78.90;;;;;;4973113;28;20040;-61
2022/07/08 07:07:22;;;;;;;9.48;1.70;;;24.10;74.80;;;;;;4973003;28;20023;-60
2022/07/08 07:09:48;;;;;;;7.78;1.95;;;24.40;70.70;;;;;;4971821;28;20492;-59
2022/07/08 07:12:14;;;;;;;6.15;1.60;;;25.30;70.40;;;;;;4973458;28;20089;-59
2022/07/08 07:14:40;;;;;;;3.75;1.42;;;26.30;67.40;;;;;;4971809;28;20030;-60
2022/07/08 07:17:06;;;;;;;5.80;1.65;;;27.20;65.10;;;;;;4971734;28;20041;-60
2022/07/08 07:19:31;;;;;;;6.10;1.83;;;27.10;63.20;;;;;;4971764;28;20031;-60
2022/07/08 07:21:57;;;;;;;4.47;1.58;;;26.90;63.40;;;;;;4974501;28;20023;-60
2022/07/08 07:24:23;;;;;;;2.97;1.40;;;26.90;63.50;;;;;;4991443;28;20029;-59
2022/07/08 07:26:48;;;;;;;7.18;2.17;;;26.30;64.30;;;;;;4991085;28;20528;-60
2022/07/08 07:29:14;;;;;;;8.80;1.83;;;27.10;64.50;;;;;;4991128;28;20035;-61
2022/07/08 07:31:40;;;;;;;8.30;1.75;;;27.50;61.00;;;;;;4989477;28;20129;-60
2022/07/08 07:34:07;;;;;;;7.95;1.80;;;28.80;61.70;;;;;;4991166;28;20062;-60
2022/07/08 07:36:33;;;;;;;9.18;2.72;;;30.00;58.40;;;;;;4990610;28;20034;-59
2022/07/08 07:38:59;;;;;;;5.85;1.85;;;28.10;60.00;;;;;;4991009;28;20388;-59
2022/07/08 07:41:24;;;;;;;7.72;1.98;;;27.00;60.40;;;;;;4989403;28;20018;-61
2022/07/08 07:43:50;;;;;;;9.30;2.25;;;25.10;63.90;;;;;;4989509;28;20031;-60
2022/07/08 07:46:15;;;;;;;6.90;2.30;;;23.90;66.60;;;;;;4990606;28;20033;-59
2022/07/08 07:48:41;;;;;;;7.65;2.72;;;23.10;69.10;;;;;;4990836;28;20054;-58
2022/07/08 07:51:07;;;;;;;5.70;2.60;;;23.00;70.30;;;;;;4990657;28;20022;-61
2022/07/08 07:53:33;;;;;;;9.70;2.80;;;23.60;69.90;;;;;;4989260;28;20030;-58
2022/07/08 07:55:58;;;;;;;8.02;3.45;;;23.70;68.10;;;;;;4990419;28;20037;-59
2022/07/08 07:58:25;;;;;;;7.57;3.38;;;22.80;69.40;;;;;;4990769;28;20444;-59
2022/07/08 08:00:51;;;;;;;7.82;3.05;;;21.90;72.70;;;;;;4990688;28;20018;-59
2022/07/08 08:03:17;;;;;;;10.82;3.38;;;21.30;74.20;;;;;;4989126;28;20030;-57
2022/07/08 08:05:43;;;;;;;7.28;3.10;;;20.80;76.80;;;;;;4992016;28;20029;-59
2022/07/08 08:08:09;;;;;;;12.70;3.78;;;20.60;77.60;;;;;;4955716;28;1121827;-60
2022/07/08 08:10:35;;;;;;;10.90;3.33;;;21.20;75.80;;;;;;4995406;28;20105;-59
2022/07/08 08:13:01;;;;;;;12.95;3.72;;;22.90;74.30;;;;;;4986632;28;20112;-59
2022/07/08 08:15:29;;;;;;;7.22;3.58;;;23.30;71.60;;;;;;4975384;28;20038;-59
2022/07/08 08:17:56;;;;;;;9.13;3.38;;;24.20;72.80;;;;;;4975331;28;20019;-60
2022/07/08 08:20:24;;;;;;;14.02;4.10;;;25.90;67.70;;;;;;4975377;28;20038;-62
2022/07/08 08:22:51;;;;;;;10.20;3.30;;;26.60;64.90;;;;;;4976458;28;20022;-61
2022/07/08 08:25:17;;;;;;;10.18;2.58;;;27.30;63.20;;;;;;4975281;28;20437;-62
2022/07/08 08:27:43;;;;;;;9.65;3.10;;;26.80;62.40;;;;;;4975184;28;20089;-61
2022/07/08 08:30:09;;;;;;;6.07;2.72;;;26.80;64.20;;;;;;4975167;28;20035;-62
2022/07/08 08:32:35;;;;;;;10.90;3.40;;;27.80;62.70;;;;;;4975480;28;20077;-60
2022/07/08 08:35:01;;;;;;;15.23;4.28;;;28.20;62.80;;;;;;4976129;28;20027;-63
2022/07/08 08:37:27;;;;;;;7.40;3.28;;;28.90;59.80;;;;;;4974987;28;20027;-63
2022/07/08 08:39:53;;;;;;;9.48;3.45;;;28.90;58.80;;;;;;4974955;28;20409;-62
2022/07/08 08:42:20;;;;;;;10.60;3.83;;;28.70;60.10;;;;;;4975344;28;20055;-62
2022/07/08 08:44:49;;;;;;;14.02;4.35;;;27.20;60.80;;;;;;4974681;28;20027;-61
2022/07/08 08:47:15;;;;;;;5.85;2.90;;;26.30;63.80;;;;;;4975001;28;20058;-61
2022/07/08 08:49:41;;;;;;;6.53;3.25;;;26.70;62.30;;;;;;4975967;28;20105;-62
2022/07/08 08:52:09;;;;;;;10.35;3.72;;;27.40;61.10;;;;;;4975088;28;20051;-61
2022/07/08 08:54:37;;;;;;;13.45;3.20;;;27.60;60.10;;;;;;4974818;28;20378;-58
2022/07/08 08:57:05;;;;;;;8.50;2.67;;;28.00;59.50;;;;;;4974921;28;20031;-61
2022/07/08 08:59:33;;;;;;;6.82;2.83;;;27.70;60.60;;;;;;4975671;28;20022;-62
2022/07/08 09:02:00;;;;;;;6.97;2.58;;;27.40;59.70;;;;;;4975720;28;20027;-61
2022/07/08 09:04:28;;;;;;;8.85;2.90;;;27.70;59.00;;;;;;4974862;28;20455;-61
2022/07/08 09:06:54;;;;;;;7.63;2.90;;;26.00;62.80;;;;;;4974400;28;20026;-61
2022/07/08 09:09:19;;;;;;;13.30;3.97;;;25.70;62.50;;;;;;4974420;28;20412;-61
2022/07/08 09:11:45;;;;;;;9.10;3.42;;;26.30;64.00;;;;;;4975638;28;20030;-62
2022/07/08 09:14:12;;;;;;;10.13;3.42;;;26.30;61.80;;;;;;4974462;28;20031;-62
2022/07/08 09:16:38;;;;;;;8.35;2.60;;;27.20;63.20;;;;;;4973642;28;20408;-61
2022/07/08 09:19:14;;;;;;;11.43;2.95;;;27.60;60.00;;;;;;4974526;28;20034;-61
2022/07/08 09:21:51;;;;;;;9.65;2.97;;;28.00;59.70;;;;;;4975075;28;20026;-61
2022/07/08 09:24:17;;;;;;;13.18;3.03;;;26.90;59.20;;;;;;4994161;28;20089;-60
2022/07/08 09:26:43;;;;;;;4.97;2.60;;;26.40;61.30;;;;;;4993202;28;20050;-62
2022/07/08 09:29:09;;;;;;;10.20;3.40;;;26.70;60.20;;;;;;4993584;28;20049;-61
2022/07/08 09:31:35;;;;;;;10.25;3.22;;;27.30;60.30;;;;;;4993076;28;20600;-58
2022/07/08 09:34:05;;;;;;;7.60;2.83;;;27.60;61.50;;;;;;4992120;28;20516;-61
2022/07/08 09:36:46;;;;;;;7.90;2.50;;;27.90;61.30;;;;;;4993130;28;20033;-61
2022/07/08 09:39:28;;;;;;;7.90;2.33;;;26.80;60.10;;;;;;4993562;28;20118;-61
2022/07/08 09:41:54;;;;;;;7.85;2.25;;;27.50;60.90;;;;;;4991780;28;20026;-62
2022/07/08 09:44:23;;;;;;;8.23;2.28;;;28.20;58.10;;;;;;4993406;28;20030;-61
2022/07/08 09:46:49;;;;;;;6.18;2.17;;;28.30;59.70;;;;;;4993247;28;20030;-61
2022/07/08 09:49:31;;;;;;;7.15;2.42;;;27.80;58.70;;;;;;4990288;28;20436;-60
2022/07/08 09:51:58;;;;;;;7.47;2.25;;;27.50;59.90;;;;;;4992206;28;20030;-62
2022/07/08 09:54:26;;;;;;;5.82;1.73;;;27.60;59.30;;;;;;4993185;28;20412;-62
2022/07/08 09:57:02;;;;;;;8.73;2.30;;;27.70;60.20;;;;;;4992814;28;20489;-61
2022/07/08 09:59:32;;;;;;;8.35;1.92;;;27.90;60.20;;;;;;4992958;28;20019;-62
2022/07/08 10:01:59;;;;;;;5.68;1.85;;;28.20;56.70;;;;;;4991645;28;20022;-62
2022/07/08 10:04:25;;;;;;;8.48;2.08;;;28.20;58.70;;;;;;4993254;28;20030;-62
2022/07/08 10:06:52;;;;;;;8.38;2.60;;;28.10;58.00;;;;;;4993006;28;20026;-62
2022/07/08 10:09:19;;;;;;;11.23;2.28;;;27.60;60.10;;;;;;4992992;28;20336;-59
2022/07/08 10:11:47;;;;;;;8.15;2.30;;;26.90;59.70;;;;;;4984286;28;20030;-61
2022/07/08 10:14:12;;;;;;;8.77;2.42;;;26.40;58.80;;;;;;4973365;28;20058;-60
2022/07/08 10:16:40;;;;;;;5.68;1.83;;;26.00;60.30;;;;;;4973480;28;20061;-61
2022/07/08 10:19:11;;;;;;;5.45;1.92;;;25.70;59.90;;;;;;4974596;28;20035;-61
2022/07/08 10:21:39;;;;;;;5.15;1.75;;;25.50;59.50;;;;;;4973349;28;20043;-60
2022/07/08 10:24:13;;;;;;;7.72;2.00;;;25.10;62.00;;;;;;4973290;28;20031;-61
2022/07/08 10:26:40;;;;;;;8.63;1.88;;;24.30;64.10;;;;;;4972909;28;20437;-61
2022/07/08 10:29:07;;;;;;;6.57;1.88;;;24.30;64.90;;;;;;4990050;28;20022;-61
2022/07/08 10:31:50;;;;;;;10.27;2.08;;;24.20;64.80;;;;;;4992541;28;20019;-61
2022/07/08 10:34:27;;;;;;;6.65;2.08;;;24.20;66.00;;;;;;4992639;28;20026;-61
2022/07/08 10:36:53;;;;;;;9.35;2.30;;;24.20;63.80;;;;;;4992159;28;20483;-61
2022/07/08 10:39:31;;;;;;;5.03;1.88;;;24.10;64.50;;;;;;4990746;28;20031;-59
2022/07/08 10:42:02;;;;;;;4.30;2.22;;;24.10;67.30;;;;;;4992447;28;20033;-59
2022/07/08 10:44:46;;;;;;;8.85;2.13;;;24.00;65.50;;;;;;4992546;28;20272;-60
2022/07/08 10:47:14;;;;;;;11.13;2.53;;;23.80;66.40;;;;;;4991388;28;20030;-61
2022/07/08 10:49:48;;;;;;;8.68;2.35;;;23.90;66.90;;;;;;4992351;28;20029;-61
2022/07/08 10:52:16;;;;;;;9.60;2.53;;;23.70;65.80;;;;;;4992454;28;20030;-59
2022/07/08 10:54:42;;;;;;;4.22;1.95;;;23.50;67.50;;;;;;4992456;28;20050;-59
2022/07/08 10:57:16;;;;;;;8.77;1.92;;;23.40;69.00;;;;;;4992236;28;20038;-60
2022/07/08 11:00:01;;;;;;;11.68;2.35;;;23.60;67.30;;;;;;4991616;28;20396;-59
2022/07/08 11:02:27;;;;;;;6.40;1.95;;;23.60;67.80;;;;;;4986269;28;20023;-61
2022/07/08 11:04:54;;;;;;;11.93;2.60;;;23.70;69.10;;;;;;4972699;28;20023;-60
2022/07/08 11:07:32;;;;;;;7.13;1.90;;;23.80;68.50;;;;;;4973016;28;20436;-57
2022/07/08 11:10:08;;;;;;;6.20;2.40;;;23.60;68.50;;;;;;4972741;28;20046;-60
2022/07/08 11:12:42;;;;;;;7.68;2.20;;;23.80;67.40;;;;;;4973875;28;20074;-60
2022/07/08 11:15:18;;;;;;;4.72;1.90;;;23.80;66.50;;;;;;4972541;28;20038;-60
2022/07/08 11:17:50;;;;;;;4.65;1.35;;;23.70;70.10;;;;;;4972657;28;20130;-60
2022/07/08 11:20:18;;;;;;;4.88;1.95;;;23.60;67.30;;;;;;4972608;28;20031;-61
2022/07/08 11:22:45;;;;;;;8.35;1.88;;;23.70;67.40;;;;;;4973881;28;20023;-61
2022/07/08 11:25:15;;;;;;;13.27;2.42;;;23.70;68.80;;;;;;4972606;28;20369;-59
2022/07/08 11:27:41;;;;;;;5.28;1.85;;;23.30;68.00;;;;;;4973062;28;20019;-60
2022/07/08 11:30:10;;;;;;;10.07;3.00;;;22.90;71.10;;;;;;4973866;28;20022;-60
2022/07/08 11:32:36;;;;;;;7.55;2.25;;;23.00;70.40;;;;;;4972355;28;20031;-59
2022/07/08 11:35:02;;;;;;;6.35;2.13;;;23.00;70.90;;;;;;4972720;28;20031;-60
2022/07/08 11:37:32;;;;;;;5.72;2.38;;;23.30;72.20;;;;;;4972574;28;20027;-59
2022/07/08 11:39:58;;;;;;;9.27;2.30;;;23.50;69.30;;;;;;4976048;28;20026;-59
2022/07/08 11:42:24;;;;;;;6.22;2.40;;;23.50;70.80;;;;;;4995668;28;20030;-60
2022/07/08 11:44:51;;;;;;;6.00;2.05;;;23.40;70.50;;;;;;4995294;28;20129;-61
2022/07/08 11:47:22;;;;;;;7.20;2.90;;;23.40;70.00;;;;;;4995537;28;20038;-61
2022/07/08 11:49:49;;;;;;;10.70;2.80;;;23.60;70.60;;;;;;4993869;28;20027;-61
2022/07/08 11:52:17;;;;;;;12.80;2.22;;;23.70;69.40;;;;;;4976044;28;20042;-61
2022/07/08 11:54:47;;;;;;;12.52;2.40;;;23.80;72.00;;;;;;4975991;28;20030;-60
2022/07/08 11:57:14;;;;;;;7.13;2.10;;;23.70;69.80;;;;;;4975788;28;20019;-59
2022/07/08 11:59:39;;;;;;;8.02;2.20;;;24.10;72.80;;;;;;4975780;28;20110;-57
2022/07/08 12:02:06;;;;;;;14.48;3.38;;;24.50;71.30;;;;;;4976983;28;20110;-57
2022/07/08 12:04:32;;;;;;;13.40;2.47;;;24.80;69.60;;;;;;4975838;28;20111;-57
2022/07/08 12:07:01;;;;;;;7.50;2.15;;;25.00;68.80;;;;;;4975632;28;20038;-59
2022/07/08 12:09:28;;;;;;;5.95;2.08;;;25.30;69.80;;;;;;4976585;28;20138;-61
2022/07/08 12:11:56;;;;;;;5.05;1.88;;;25.50;66.20;;;;;;4992893;28;20109;-60
2022/07/08 12:14:23;;;;;;;7.15;2.30;;;25.30;68.20;;;;;;4995132;28;20568;-61
2022/07/08 12:16:53;;;;;;;7.47;2.15;;;25.10;67.60;;;;;;4994771;28;20030;-61
2022/07/08 12:19:31;;;;;;;6.70;2.00;;;24.90;68.90;;;;;;4995054;28;20030;-61
2022/07/08 12:21:59;;;;;;;9.32;2.60;;;24.40;70.60;;;;;;4993389;28;20755;-60
2022/07/08 12:24:33;;;;;;;8.02;2.00;;;24.50;70.90;;;;;;4995042;28;20030;-60
2022/07/08 12:27:10;;;;;;;5.13;1.90;;;24.40;69.50;;;;;;4994867;28;20041;-60
2022/07/08 12:29:37;;;;;;;12.05;2.38;;;24.50;70.20;;;;;;4994981;28;20034;-61
2022/07/08 12:32:04;;;;;;;8.25;2.20;;;24.50;70.20;;;;;;4992852;28;20045;-60
2022/07/08 12:34:30;;;;;;;10.82;2.05;;;24.50;68.30;;;;;;4989526;28;20030;-59
2022/07/08 12:37:16;;;;;;;9.98;2.22;;;24.80;68.70;;;;;;4994304;28;20044;-60
2022/07/08 12:39:42;;;;;;;7.20;1.90;;;25.30;68.80;;;;;;4994319;28;20037;-60
2022/07/08 12:42:08;;;;;;;9.55;1.98;;;25.10;68.70;;;;;;4980040;28;20031;-61